x

Fowey Rock, Fl (fwyf1) Weather Station

3:00pm - Mon 1st Sep 2014 All times are EDT. -4 hours from GMT.

  • Wind
    8mph, 9mph gusts
  • Sea Temp 87°f
  • Air Temp 84°f
  • Sea Pressure 1018.4mb
  • Fowey Rock, Fl
  • Fowey Rock, Fl

More Historic Weather Station data

Upgrade to MSW Pro to gain access to the past 30 days of data for over 8000 Wavebouys and Weather Stations around the globe.

Join Pro

Comparision Forecast

View Surf forecast
   
Mon 09/01 3:00pm 8 9 mph 1018.4mb 87f 84f
2:00pm 10 11 mph 1018.9mb 87f 85f
1:00pm 14 15 mph 1019.2mb 87f 85f
12:00pm 14 15 mph 1019.7mb 87f 85f
11:00am 17 18 mph 1019.7mb 87f 85f
10:00am 17 18 mph 1019.2mb 86f 85f
9:00am 20 21 mph 1018.7mb 86f 84f
8:00am 14 15 mph 1018.5mb 86f 85f
7:00am 15 17 mph 1017.8mb 86f 84f
6:00am 14 16 mph 1017.4mb 86f 85f
5:00am 17 20 mph 1017.2mb 86f 85f
4:00am 17 18 mph 1017.3mb 86f 85f
3:00am 14 15 mph 1017.9mb 87f 85f
2:00am 10 11 mph 1018.8mb 87f 85f
1:00am 15 16 mph 1018.8mb 87f 85f
12:00am 13
mph
1019.2mb 87f 85f
Sun 08/31 11:00pm 9 10 mph 1019.2mb 87f 85f
10:00pm 14 15 mph 1018.9mb 87f 84f
9:00pm 15 16 mph 1018.9mb 87f 86f
8:00pm 13 14 mph 1018.3mb 87f 85f
7:00pm 14 16 mph 1018.2mb 87f 86f
6:00pm 15 16 mph 1017.9mb 87f 86f
5:00pm 18 21 mph 1017.8mb 87f 86f
4:00pm 20 21 mph 1018.2mb 87f 86f
3:00pm 17 18 mph 1018.8mb 87f 85f
2:00pm 17 21 mph 1019.4mb 87f 85f
1:00pm 18 21 mph 1019.8mb 87f 85f
12:00pm 21 22 mph 1019.9mb 87f 85f
11:00am 20 22 mph 1019.8mb 87f 85f
10:00am 20 21 mph 1019.7mb 87f 85f
9:00am 15 17 mph 1019.5mb 87f 85f
8:00am 15 16 mph 1019.3mb 87f 84f
7:00am 14 15 mph 1019.2mb 87f 85f
6:00am 14 15 mph 1018.7mb 87f 85f
5:00am 14 15 mph 1018.6mb 86f 85f
4:00am 9 10 mph 1018.8mb 87f 84f
3:00am 16 17 mph 1019mb 87f 84f
2:00am 13 14 mph 1019.3mb 87f 86f
1:00am 17 20 mph 1019.3mb 87f 86f
12:00am 18 20 mph 1019.2mb 87f 86f
Sat 08/30 11:00pm 20 21 mph 1019.3mb 87f 87f
10:00pm 21 23 mph 1019mb 87f 86f
9:00pm 20 21 mph 1018.5mb 87f 86f
8:00pm 20 21 mph 1018.3mb 87f 86f
7:00pm 17 20 mph 1017.9mb 87f 86f
6:00pm 16 17 mph 1017.6mb 87f 86f
5:00pm 16 17 mph 1017.4mb 87f 86f
4:00pm 16 17 mph 1018.1mb 87f 86f
3:00pm 20 21 mph 1018.4mb 87f 86f
2:00pm 15 17 mph 1019.2mb 87f 86f
1:00pm 17 20 mph 1019.5mb 87f 86f
12:00pm 18 20 mph 1019.7mb 87f 85f
11:00am 15 16 mph 1020mb 87f 85f
10:00am 17 20 mph 1019.6mb 86f 85f
9:00am 21
mph
1019.3mb 86f 85f
8:00am 21 22 mph 1019.3mb 86f 85f
7:00am 18 20 mph 1018.8mb 86f 85f
6:00am 17 18 mph 1018.6mb 87f 85f
5:00am 16 17 mph 1018.1mb 87f 85f
4:00am 16 17 mph 1018.2mb 87f 85f
3:00am 17 18 mph 1018.6mb 87f 86f
2:00am 20 21 mph 1018.8mb 87f 86f
1:00am 20 21 mph 1019.5mb 87f 86f
12:00am 20 21 mph 1019.2mb 87f 86f
Fri 08/29 11:00pm 16 17 mph 1019.4mb 87f 87f
10:00pm 15 16 mph 1018.5mb 87f 86f
9:00pm 13 14 mph 1018.4mb 87f 86f
8:00pm 14 15 mph 1017.5mb 87f 86f
7:00pm 14 16 mph 1017.1mb 88f 86f
6:00pm 15
mph
1016.5mb 88f 86f
5:00pm 14 15 mph 1016.2mb 88f 86f
4:00pm 14
mph
1016.6mb 87f 86f
3:00pm 13 14 mph 1017.2mb 87f 86f
2:00pm 14 15 mph 1017.7mb 87f 86f
1:00pm 11 13 mph 1018mb 87f 85f
12:00pm 11 14 mph 1018.3mb 87f 86f
11:00am 14 15 mph 1018mb 87f 85f
10:00am 14 15 mph 1017.9mb 87f 85f
9:00am 15 17 mph 1017.5mb 86f 85f
8:00am 14 15 mph 1017.3mb 86f 85f
7:00am 14
mph
1016.5mb 86f 85f
6:00am 13 14 mph 1016.5mb 86f 85f
5:00am 13 14 mph 1016.2mb 86f 85f
4:00am 14 15 mph 1015.8mb 86f 85f
3:00am 14 15 mph 1015.8mb 87f 85f
2:00am 13 14 mph 1016.4mb 87f 85f
1:00am 10
mph
1016.9mb 87f 85f
12:00am 13 14 mph 1017.1mb 87f 85f
Thu 08/28 11:00pm 11 13 mph 1017.3mb 87f 86f
10:00pm 11 13 mph 1017mb 87f 86f
9:00pm 14 15 mph 1016.2mb 87f 85f